createdAt,value
2016-03-03T00:00:14.581Z,82
2016-03-03T00:01:15.584Z,82
2016-03-03T00:02:14.383Z,82
2016-03-03T00:03:13.199Z,82
2016-03-03T00:04:11.933Z,82
2016-03-03T00:05:10.842Z,82
2016-03-03T00:06:09.501Z,82
2016-03-03T00:07:08.613Z,82
2016-03-03T00:08:07.616Z,82
2016-03-03T00:09:06.634Z,82
2016-03-03T00:10:05.730Z,82
2016-03-03T00:11:06.733Z,82
2016-03-03T00:12:06.032Z,82
2016-03-03T00:13:05.457Z,83
2016-03-03T00:14:04.898Z,83
2016-03-03T00:15:04.432Z,83
2016-03-03T00:16:04.231Z,83
2016-03-03T00:17:04.031Z,83
2016-03-03T00:18:03.846Z,84
2016-03-03T00:19:03.879Z,84
2016-03-03T00:20:03.992Z,84
2016-03-03T00:21:05.010Z,84
2016-03-03T00:22:05.059Z,84
2016-03-03T00:23:05.094Z,84
2016-03-03T00:24:05.409Z,84
2016-03-03T00:25:05.708Z,84
2016-03-03T00:26:06.040Z,84
2016-03-03T00:27:06.573Z,84
2016-03-03T00:28:07.139Z,84
2016-03-03T00:29:07.813Z,84
2016-03-03T00:30:08.425Z,84
2016-03-03T00:31:09.459Z,84
2016-03-03T00:32:09.883Z,85
2016-03-03T00:33:10.699Z,84
2016-03-03T00:34:11.263Z,84
2016-03-03T00:35:11.814Z,85
2016-03-03T00:36:13.004Z,85
2016-03-03T00:37:13.446Z,85
2016-03-03T00:38:14.262Z,85
2016-03-03T00:39:15.765Z,85
2016-03-03T00:40:15.938Z,85
2016-03-03T00:41:16.941Z,85
2016-03-03T00:42:18.194Z,85
2016-03-03T00:43:19.384Z,85
2016-03-03T00:44:20.357Z,85
2016-03-03T00:45:21.343Z,85
2016-03-03T00:46:22.283Z,85
2016-03-03T00:47:23.365Z,85
2016-03-03T00:48:24.460Z,85
2016-03-03T00:49:25.525Z,85
2016-03-03T00:50:26.606Z,85
2016-03-03T00:51:27.610Z,85
2016-03-03T00:52:28.753Z,85
2016-03-03T00:53:29.755Z,85
2016-03-03T00:54:30.820Z,85
2016-03-03T00:55:31.901Z,85
2016-03-03T00:56:32.951Z,85
2016-03-03T00:57:34.017Z,85
2016-03-03T00:58:35.112Z,85
2016-03-03T00:59:36.162Z,85
2016-03-03T01:00:37.289Z,85
2016-03-03T01:01:38.292Z,85
2016-03-03T01:02:39.358Z,85
2016-03-03T01:03:40.438Z,85
2016-03-03T01:04:41.489Z,85
2016-03-03T01:05:42.569Z,85
2016-03-03T01:06:43.650Z,85
2016-03-03T01:07:44.824Z,85
2016-03-03T01:08:45.748Z,85
2016-03-03T01:09:46.830Z,85
2016-03-03T01:10:47.957Z,85
2016-03-03T01:11:49.085Z,85
2016-03-03T01:12:50.416Z,85
2016-03-03T01:13:51.091Z,85
2016-03-03T01:14:52.155Z,85
2016-03-03T01:15:53.268Z,85
2016-03-03T01:16:54.411Z,85
2016-03-03T01:17:55.632Z,85
2016-03-03T01:18:56.416Z,85
2016-03-03T01:19:57.482Z,85
2016-03-03T01:20:58.640Z,85
2016-03-03T01:21:59.612Z,85
2016-03-03T01:23:00.693Z,85
2016-03-03T01:24:01.773Z,85
2016-03-03T01:25:02.854Z,85
2016-03-03T01:26:03.872Z,85
2016-03-03T01:27:04.937Z,85
2016-03-03T01:28:06.144Z,85
2016-03-03T01:29:07.068Z,85
2016-03-03T01:30:08.165Z,85
2016-03-03T01:31:09.261Z,85
2016-03-03T01:32:10.264Z,85
2016-03-03T01:33:11.360Z,85
2016-03-03T01:34:12.410Z,85
2016-03-03T01:35:13.474Z,85
2016-03-03T01:36:14.555Z,85
2016-03-03T01:37:15.589Z,85
2016-03-03T01:38:16.655Z,85
2016-03-03T01:39:17.751Z,85
2016-03-03T01:40:18.801Z,85
2016-03-03T01:41:19.931Z,85
2016-03-03T01:42:20.934Z,85
2016-03-03T01:43:21.999Z,85
2016-03-03T01:44:23.049Z,85
2016-03-03T01:45:24.129Z,85
2016-03-03T01:46:25.180Z,85
2016-03-03T01:47:26.260Z,86
2016-03-03T01:48:27.685Z,86
2016-03-03T01:49:28.890Z,86
2016-03-03T01:50:30.206Z,86
2016-03-03T01:51:31.693Z,86
2016-03-03T01:52:32.633Z,86
2016-03-03T01:53:33.914Z,86
2016-03-03T01:54:35.354Z,86
2016-03-03T01:55:36.545Z,86
2016-03-03T01:56:37.875Z,86
2016-03-03T01:57:39.189Z,86
2016-03-03T01:58:40.630Z,86
2016-03-03T01:59:41.945Z,86
2016-03-03T02:00:43.261Z,86
2016-03-03T02:01:44.780Z,86
2016-03-03T02:02:45.782Z,86
2016-03-03T02:03:47.362Z,86
2016-03-03T02:04:48.927Z,86
2016-03-03T02:05:50.618Z,86
2016-03-03T02:06:52.074Z,86
2016-03-03T02:07:53.764Z,86
2016-03-03T02:08:55.236Z,86
2016-03-03T02:09:56.816Z,86
2016-03-03T02:10:58.382Z,86
2016-03-03T02:11:59.994Z,86
2016-03-03T02:13:00.997Z,86
2016-03-03T02:14:02.593Z,86
2016-03-03T02:15:04.173Z,86
2016-03-03T02:16:05.754Z,86
2016-03-03T02:17:07.304Z,86
2016-03-03T02:18:08.901Z,86
2016-03-03T02:19:10.482Z,86
2016-03-03T02:20:12.015Z,86
2016-03-03T02:21:13.721Z,86
2016-03-03T02:22:15.223Z,86
2016-03-03T02:23:16.226Z,86
2016-03-03T02:24:17.822Z,87
2016-03-03T02:25:15.592Z,87
2016-03-03T02:26:13.375Z,86
2016-03-03T02:27:11.112Z,86
2016-03-03T02:28:08.895Z,87
2016-03-03T02:29:06.664Z,86
2016-03-03T02:30:04.541Z,86
2016-03-03T02:31:02.232Z,86
2016-03-03T02:32:00.017Z,86
2016-03-03T02:33:01.034Z,86
2016-03-03T02:33:58.803Z,86
2016-03-03T02:34:56.571Z,86
2016-03-03T02:35:54.339Z,86
2016-03-03T02:36:52.107Z,86
2016-03-03T02:37:49.891Z,86
2016-03-03T02:38:47.675Z,86
2016-03-03T02:39:45.428Z,86
2016-03-03T02:40:43.212Z,87
2016-03-03T02:41:41.277Z,87
2016-03-03T02:42:42.279Z,87
2016-03-03T02:43:40.313Z,87
2016-03-03T02:44:38.332Z,87
2016-03-03T02:45:36.382Z,87
2016-03-03T02:46:34.385Z,87
2016-03-03T02:47:32.418Z,87
2016-03-03T02:48:30.437Z,87
2016-03-03T02:49:28.448Z,87
2016-03-03T02:50:26.467Z,87
2016-03-03T02:51:24.654Z,87
2016-03-03T02:52:25.519Z,87
2016-03-03T02:53:23.675Z,87
2016-03-03T02:54:21.553Z,87
2016-03-03T02:55:19.561Z,87
2016-03-03T02:56:17.621Z,87
2016-03-03T02:57:15.602Z,87
2016-03-03T02:58:13.740Z,87
2016-03-03T02:59:11.644Z,87
2016-03-03T03:00:09.659Z,87
2016-03-03T03:01:07.769Z,87
2016-03-03T03:02:08.753Z,87
2016-03-03T03:03:06.770Z,87
2016-03-03T03:04:04.787Z,87
2016-03-03T03:05:02.819Z,87
2016-03-03T03:06:00.837Z,87
2016-03-03T03:06:58.870Z,87
2016-03-03T03:07:56.887Z,87
2016-03-03T03:08:54.905Z,87
2016-03-03T03:09:52.939Z,87
2016-03-03T03:10:51.019Z,87
2016-03-03T03:11:52.146Z,87
2016-03-03T03:12:50.056Z,87
2016-03-03T03:13:48.089Z,87
2016-03-03T03:14:46.108Z,87
2016-03-03T03:15:44.125Z,87
2016-03-03T03:16:42.268Z,87
2016-03-03T03:17:40.177Z,87
2016-03-03T03:18:38.211Z,87
2016-03-03T03:19:36.368Z,87
2016-03-03T03:20:34.557Z,87
2016-03-03T03:21:35.576Z,87
2016-03-03T03:22:33.891Z,87
2016-03-03T03:23:32.160Z,87
2016-03-03T03:24:30.163Z,87
2016-03-03T03:25:28.431Z,87
2016-03-03T03:26:26.715Z,87
2016-03-03T03:27:25.015Z,87
2016-03-03T03:28:23.268Z,87
2016-03-03T03:29:21.552Z,87
2016-03-03T03:30:19.898Z,87
2016-03-03T03:31:20.884Z,87
2016-03-03T03:32:19.168Z,87
2016-03-03T03:33:17.468Z,87
2016-03-03T03:34:15.721Z,87
2016-03-03T03:35:14.004Z,87
2016-03-03T03:36:12.336Z,87
2016-03-03T03:37:10.557Z,87
2016-03-03T03:38:08.841Z,87
2016-03-03T03:39:07.109Z,87
2016-03-03T03:40:05.487Z,87
2016-03-03T03:41:06.458Z,87
2016-03-03T03:42:04.742Z,87
2016-03-03T03:43:03.136Z,87
2016-03-03T03:44:01.311Z,87
2016-03-03T03:44:59.564Z,87
2016-03-03T03:45:57.878Z,87
2016-03-03T03:46:56.131Z,87
2016-03-03T03:47:54.415Z,87
2016-03-03T03:48:52.684Z,87
2016-03-03T03:49:51.061Z,88
2016-03-03T03:50:52.048Z,88
2016-03-03T03:51:50.597Z,88
2016-03-03T03:52:49.116Z,88
2016-03-03T03:53:47.634Z,88
2016-03-03T03:54:46.181Z,88
2016-03-03T03:55:44.683Z,88
2016-03-03T03:56:43.218Z,88
2016-03-03T03:57:41.751Z,88
2016-03-03T03:58:40.285Z,88
2016-03-03T03:59:39.007Z,88
2016-03-03T04:00:39.869Z,88
2016-03-03T04:01:38.403Z,88
2016-03-03T04:02:36.968Z,88
2016-03-03T04:03:35.471Z,88
2016-03-03T04:04:34.005Z,88
2016-03-03T04:05:32.554Z,88
2016-03-03T04:06:31.088Z,88
2016-03-03T04:07:29.590Z,88
2016-03-03T04:08:28.125Z,88
2016-03-03T04:09:26.737Z,88
2016-03-03T04:10:27.723Z,88
2016-03-03T04:11:26.259Z,88
2016-03-03T04:12:24.807Z,88
2016-03-03T04:13:23.342Z,88
2016-03-03T04:14:21.860Z,88
2016-03-03T04:15:20.379Z,88
2016-03-03T04:16:18.912Z,88
2016-03-03T04:17:17.446Z,88
2016-03-03T04:18:15.964Z,88
2016-03-03T04:19:14.562Z,88
2016-03-03T04:20:15.580Z,88
2016-03-03T04:21:14.098Z,88
2016-03-03T04:22:12.622Z,88
2016-03-03T04:23:11.312Z,88
2016-03-03T04:24:09.689Z,88
2016-03-03T04:25:08.223Z,88
2016-03-03T04:26:06.741Z,88
2016-03-03T04:27:05.400Z,88
2016-03-03T04:28:03.825Z,88
2016-03-03T04:29:02.515Z,88
2016-03-03T04:30:03.409Z,88
2016-03-03T04:31:01.942Z,88
2016-03-03T04:32:00.461Z,88
2016-03-03T04:32:58.995Z,88
2016-03-03T04:33:57.544Z,88
2016-03-03T04:34:56.094Z,88
2016-03-03T04:35:54.596Z,88
2016-03-03T04:36:53.115Z,88
2016-03-03T04:37:51.711Z,88
2016-03-03T04:38:50.245Z,88
2016-03-03T04:39:51.373Z,88
2016-03-03T04:40:49.782Z,88
2016-03-03T04:41:48.316Z,88
2016-03-03T04:42:46.863Z,88
2016-03-03T04:43:45.366Z,88
2016-03-03T04:44:43.899Z,88
2016-03-03T04:45:42.465Z,88
2016-03-03T04:46:40.967Z,88
2016-03-03T04:47:39.517Z,88
2016-03-03T04:48:38.207Z,88
2016-03-03T04:49:39.085Z,88
2016-03-03T04:50:37.634Z,88
2016-03-03T04:51:36.168Z,88
2016-03-03T04:52:34.686Z,88
2016-03-03T04:53:33.251Z,88
2016-03-03T04:54:31.754Z,88
2016-03-03T04:55:30.288Z,88
2016-03-03T04:56:28.838Z,88
2016-03-03T04:57:27.341Z,88
2016-03-03T04:58:25.937Z,88
2016-03-03T04:59:26.956Z,88
2016-03-03T05:00:25.474Z,88
2016-03-03T05:01:24.023Z,88
2016-03-03T05:02:22.542Z,88
2016-03-03T05:03:21.013Z,88
2016-03-03T05:04:19.594Z,88
2016-03-03T05:05:18.268Z,88
2016-03-03T05:06:16.661Z,88
2016-03-03T05:07:15.196Z,88
2016-03-03T05:08:13.792Z,88
2016-03-03T05:09:14.794Z,88
2016-03-03T05:10:13.329Z,88
2016-03-03T05:11:11.846Z,88
2016-03-03T05:12:10.396Z,88
2016-03-03T05:13:08.915Z,88
2016-03-03T05:14:07.448Z,88
2016-03-03T05:15:05.577Z,88
2016-03-03T05:16:04.501Z,88
2016-03-03T05:17:03.050Z,88
2016-03-03T05:18:01.662Z,88
2016-03-03T05:19:02.665Z,88
2016-03-03T05:20:01.168Z,88
2016-03-03T05:20:59.827Z,88
2016-03-03T05:21:58.220Z,88
2016-03-03T05:22:56.786Z,88
2016-03-03T05:23:55.289Z,88
2016-03-03T05:24:53.838Z,88
2016-03-03T05:25:52.559Z,88
2016-03-03T05:26:50.890Z,88
2016-03-03T05:27:49.468Z,88
2016-03-03T05:28:50.503Z,88
2016-03-03T05:29:49.005Z,88
2016-03-03T05:30:47.555Z,88
2016-03-03T05:31:46.057Z,88
2016-03-03T05:32:44.591Z,88
2016-03-03T05:33:43.156Z,88
2016-03-03T05:34:41.674Z,88
2016-03-03T05:35:40.193Z,88
2016-03-03T05:36:38.727Z,88
2016-03-03T05:37:37.338Z,88
2016-03-03T05:38:38.326Z,88
2016-03-03T05:39:36.875Z,88
2016-03-03T05:40:35.425Z,88
2016-03-03T05:41:33.913Z,88
2016-03-03T05:42:32.446Z,88
2016-03-03T05:44:29.513Z,88
2016-03-03T05:45:28.048Z,88
2016-03-03T05:46:26.613Z,88
2016-03-03T05:47:25.178Z,88
2016-03-03T05:48:26.181Z,88
2016-03-03T05:49:24.699Z,88
2016-03-03T05:50:23.234Z,88
2016-03-03T05:51:21.768Z,88
2016-03-03T05:52:20.317Z,88
2016-03-03T05:53:18.835Z,88
2016-03-03T05:54:17.354Z,88
2016-03-03T05:55:16.012Z,88
2016-03-03T05:56:14.421Z,88
2016-03-03T05:57:13.158Z,88
2016-03-03T05:58:14.020Z,88
2016-03-03T05:59:12.554Z,88
2016-03-03T06:00:11.089Z,88
2016-03-03T06:01:09.622Z,88
2016-03-03T06:02:08.141Z,88
2016-03-03T06:03:06.674Z,88
2016-03-03T06:04:05.208Z,88
2016-03-03T06:05:03.727Z,88
2016-03-03T06:06:02.510Z,88
2016-03-03T06:07:01.108Z,88
2016-03-03T06:08:02.125Z,88
2016-03-03T06:09:00.674Z,88
2016-03-03T06:09:59.302Z,88
2016-03-03T06:10:57.993Z,88
2016-03-03T06:11:56.604Z,88
2016-03-03T06:12:55.279Z,88
2016-03-03T06:13:53.795Z,88
2016-03-03T06:14:52.626Z,88
2016-03-03T06:15:51.129Z,88
2016-03-03T06:16:49.709Z,88
2016-03-03T06:17:50.728Z,88
2016-03-03T06:18:49.246Z,88
2016-03-03T06:19:48.062Z,88
2016-03-03T06:20:46.580Z,88
2016-03-03T06:21:45.114Z,88
2016-03-03T06:22:43.616Z,88
2016-03-03T06:23:42.401Z,88
2016-03-03T06:24:41.184Z,88
2016-03-03T06:25:39.984Z,88
2016-03-03T06:26:38.940Z,88
2016-03-03T06:27:39.817Z,88
2016-03-03T06:28:38.617Z,88
2016-03-03T06:29:37.401Z,88
2016-03-03T06:30:36.184Z,88
2016-03-03T06:31:34.969Z,88
2016-03-03T06:32:33.753Z,88
2016-03-03T06:33:32.661Z,88
2016-03-03T06:34:31.336Z,88
2016-03-03T06:35:30.136Z,88
2016-03-03T06:36:29.075Z,88
2016-03-03T06:37:29.954Z,88
2016-03-03T06:38:28.863Z,88
2016-03-03T06:39:27.537Z,88
2016-03-03T06:40:26.056Z,88
2016-03-03T06:41:24.872Z,88
2016-03-03T06:42:23.749Z,88
2016-03-03T06:43:22.408Z,88
2016-03-03T06:44:21.222Z,88
2016-03-03T06:45:19.742Z,88
2016-03-03T06:46:18.588Z,88
2016-03-03T06:47:19.575Z,88
2016-03-03T06:48:18.391Z,88
2016-03-03T06:49:16.896Z,88
2016-03-03T06:50:15.680Z,88
2016-03-03T06:51:14.465Z,88
2016-03-03T06:52:13.248Z,88
2016-03-03T06:53:12.154Z,88
2016-03-03T06:54:10.845Z,88
2016-03-03T06:55:09.598Z,88
2016-03-03T06:56:08.475Z,88
2016-03-03T06:57:09.462Z,88
2016-03-03T06:58:07.964Z,88
2016-03-03T06:59:06.764Z,88
2016-03-03T07:00:05.548Z,88
2016-03-03T07:01:04.191Z,88
2016-03-03T07:02:02.867Z,88
2016-03-03T07:03:01.385Z,88
2016-03-03T07:04:00.294Z,88
2016-03-03T07:04:58.953Z,88
2016-03-03T07:05:57.799Z,88
2016-03-03T07:06:58.802Z,88
2016-03-03T07:07:57.710Z,88
2016-03-03T07:08:56.120Z,88
2016-03-03T07:09:54.888Z,88
2016-03-03T07:10:53.812Z,88
2016-03-03T07:11:52.456Z,88
2016-03-03T07:12:51.240Z,88
2016-03-03T07:13:50.040Z,88
2016-03-03T07:14:48.824Z,88
2016-03-03T07:15:47.670Z,88
2016-03-03T07:16:48.656Z,88
2016-03-03T07:17:47.456Z,88
2016-03-03T07:18:46.381Z,88
2016-03-03T07:19:45.024Z,88
2016-03-03T07:20:43.839Z,88
2016-03-03T07:21:42.607Z,88
2016-03-03T07:22:41.126Z,88
2016-03-03T07:23:39.925Z,88
2016-03-03T07:24:38.554Z,88
2016-03-03T07:25:37.275Z,88
2016-03-03T07:26:38.277Z,88
2016-03-03T07:27:37.092Z,88
2016-03-03T07:28:35.861Z,88
2016-03-03T07:29:34.379Z,88
2016-03-03T07:30:32.928Z,88
2016-03-03T07:31:31.447Z,88
2016-03-03T07:32:30.012Z,88
2016-03-03T07:33:28.515Z,88
2016-03-03T07:34:26.987Z,88
2016-03-03T07:35:25.630Z,88
2016-03-03T07:36:26.632Z,88
2016-03-03T07:37:25.291Z,88
2016-03-03T07:38:23.700Z,88
2016-03-03T07:39:22.485Z,88
2016-03-03T07:40:21.049Z,88
2016-03-03T07:41:19.802Z,88
2016-03-03T07:42:18.336Z,88
2016-03-03T07:43:16.870Z,88
2016-03-03T07:44:15.389Z,88
2016-03-03T07:45:13.969Z,88
2016-03-03T07:46:14.971Z,88
2016-03-03T07:47:13.771Z,88
2016-03-03T07:48:12.302Z,88
2016-03-03T07:49:10.821Z,88
2016-03-03T07:50:09.604Z,88
2016-03-03T07:51:08.389Z,88
2016-03-03T07:52:07.173Z,88
2016-03-03T07:53:05.956Z,88
2016-03-03T07:54:04.756Z,88
2016-03-03T07:55:03.587Z,88
2016-03-03T07:56:04.606Z,88
2016-03-03T07:57:03.123Z,88
2016-03-03T07:58:01.908Z,88
2016-03-03T07:59:00.457Z,88
2016-03-03T07:59:58.975Z,88
2016-03-03T08:00:57.525Z,88
2016-03-03T08:01:56.043Z,88
2016-03-03T08:02:54.577Z,88
2016-03-03T08:03:53.128Z,88
2016-03-03T08:04:51.692Z,88
2016-03-03T08:05:52.695Z,88
2016-03-03T08:06:51.228Z,88
2016-03-03T08:07:49.763Z,88
2016-03-03T08:08:48.297Z,88
2016-03-03T08:09:46.815Z,88
2016-03-03T08:10:45.380Z,88
2016-03-03T08:11:43.883Z,88
2016-03-03T08:12:42.416Z,88
2016-03-03T08:13:40.951Z,88
2016-03-03T08:14:39.532Z,88
2016-03-03T08:15:40.549Z,88
2016-03-03T08:16:39.084Z,88
2016-03-03T08:17:37.633Z,88
2016-03-03T08:18:36.135Z,88
2016-03-03T08:19:34.670Z,88
2016-03-03T08:20:33.204Z,88
2016-03-03T08:21:31.723Z,88
2016-03-03T08:22:29.959Z,88
2016-03-03T08:23:28.821Z,88
2016-03-03T08:24:27.387Z,88
2016-03-03T08:25:28.389Z,88
2016-03-03T08:26:26.907Z,88
2016-03-03T08:27:25.379Z,88
2016-03-03T08:28:23.975Z,88
2016-03-03T08:29:22.509Z,88
2016-03-03T08:30:21.043Z,88
2016-03-03T08:31:19.608Z,88
2016-03-03T08:32:18.049Z,88
2016-03-03T08:33:16.630Z,88
2016-03-03T08:34:15.242Z,88
2016-03-03T08:35:16.244Z,88
2016-03-03T08:36:14.903Z,88
2016-03-03T08:37:13.294Z,88
2016-03-03T08:38:11.828Z,88
2016-03-03T08:39:10.486Z,88
2016-03-03T08:40:08.896Z,88
2016-03-03T08:41:07.414Z,88
2016-03-03T08:42:05.932Z,88
2016-03-03T08:43:04.466Z,88
2016-03-03T08:44:03.094Z,88
2016-03-03T08:45:04.065Z,88
2016-03-03T08:46:02.583Z,88
2016-03-03T08:47:01.118Z,88
2016-03-03T08:47:59.651Z,88
2016-03-03T08:48:58.170Z,88
2016-03-03T08:49:56.704Z,88
2016-03-03T08:50:55.237Z,88
2016-03-03T08:51:53.803Z,88
2016-03-03T08:52:52.306Z,88
2016-03-03T08:53:50.902Z,88
2016-03-03T08:54:51.889Z,88
2016-03-03T08:55:50.532Z,88
2016-03-03T08:56:48.942Z,88
2016-03-03T08:57:47.490Z,88
2016-03-03T08:58:46.025Z,88
2016-03-03T08:59:44.543Z,88
2016-03-03T09:00:43.077Z,88
2016-03-03T09:01:41.596Z,87
2016-03-03T09:02:39.942Z,87
2016-03-03T09:03:38.225Z,87
2016-03-03T09:04:39.228Z,87
2016-03-03T09:05:37.497Z,87
2016-03-03T09:06:35.796Z,87
2016-03-03T09:07:34.064Z,87
2016-03-03T09:08:32.020Z,87
2016-03-03T09:09:30.617Z,87
2016-03-03T09:10:28.886Z,87
2016-03-03T09:11:27.169Z,87
2016-03-03T09:12:25.484Z,87
2016-03-03T09:13:23.941Z,88
2016-03-03T09:14:24.911Z,87
2016-03-03T09:15:23.055Z,88
2016-03-03T09:16:21.620Z,88
2016-03-03T09:17:20.123Z,88
2016-03-03T09:18:18.657Z,88
2016-03-03T09:19:17.191Z,88
2016-03-03T09:20:15.709Z,88
2016-03-03T09:21:14.256Z,88
2016-03-03T09:22:12.774Z,88
2016-03-03T09:23:11.355Z,88
2016-03-03T09:24:12.514Z,88
2016-03-03T09:25:10.907Z,88
2016-03-03T09:26:09.425Z,88
2016-03-03T09:27:08.100Z,88
2016-03-03T09:28:06.493Z,88
2016-03-03T09:29:05.028Z,88
2016-03-03T09:30:03.545Z,88
2016-03-03T09:31:02.204Z,88
2016-03-03T09:32:00.614Z,88
2016-03-03T09:32:59.209Z,88
2016-03-03T09:34:00.212Z,88
2016-03-03T09:34:58.746Z,88
2016-03-03T09:35:57.265Z,88
2016-03-03T09:36:55.799Z,88
2016-03-03T09:37:54.333Z,88
2016-03-03T09:38:52.867Z,88
2016-03-03T09:39:51.400Z,88
2016-03-03T09:40:49.919Z,88
2016-03-03T09:41:48.453Z,88
2016-03-03T09:42:47.049Z,88
2016-03-03T09:43:48.177Z,88
2016-03-03T09:44:46.602Z,88
2016-03-03T09:45:45.135Z,88
2016-03-03T09:46:43.655Z,88
2016-03-03T09:47:42.172Z,88
2016-03-03T09:48:40.707Z,88
2016-03-03T09:49:39.240Z,88
2016-03-03T09:50:37.774Z,88
2016-03-03T09:51:36.339Z,88
2016-03-03T09:52:34.904Z,88
2016-03-03T09:53:35.891Z,88
2016-03-03T09:54:34.441Z,88
2016-03-03T09:55:32.975Z,88
2016-03-03T09:56:31.509Z,88
2016-03-03T09:57:30.059Z,88
2016-03-03T09:58:28.562Z,88
2016-03-03T09:59:27.079Z,88
2016-03-03T10:00:25.614Z,88
2016-03-03T10:01:24.195Z,88
2016-03-03T10:02:22.728Z,88
2016-03-03T10:03:23.856Z,88
2016-03-03T10:04:22.281Z,88
2016-03-03T10:05:20.845Z,88
2016-03-03T10:06:19.458Z,88
2016-03-03T10:07:17.850Z,88
2016-03-03T10:08:15.975Z,88
2016-03-03T10:09:14.931Z,88
2016-03-03T10:10:13.450Z,88
2016-03-03T10:11:12.108Z,88
2016-03-03T10:12:10.675Z,88
2016-03-03T10:13:11.567Z,88
2016-03-03T10:14:10.211Z,88
2016-03-03T10:15:08.776Z,88
2016-03-03T10:16:07.185Z,88
2016-03-03T10:17:05.687Z,87
2016-03-03T10:18:03.955Z,87
2016-03-03T10:19:02.380Z,87
2016-03-03T10:20:00.507Z,87
2016-03-03T10:20:58.901Z,87
2016-03-03T10:21:57.232Z,87
2016-03-03T10:22:58.079Z,87
2016-03-03T10:23:56.409Z,87
2016-03-03T10:24:54.693Z,87
2016-03-03T10:25:52.962Z,87
2016-03-03T10:26:51.308Z,87
2016-03-03T10:27:49.373Z,87
2016-03-03T10:28:47.407Z,87
2016-03-03T10:29:45.425Z,87
2016-03-03T10:30:43.459Z,87
2016-03-03T10:31:41.415Z,87
2016-03-03T10:32:42.417Z,87
2016-03-03T10:33:40.577Z,87
2016-03-03T10:34:38.455Z,87
2016-03-03T10:35:36.472Z,87
2016-03-03T10:36:34.506Z,87
2016-03-03T10:37:32.525Z,87
2016-03-03T10:38:30.544Z,87
2016-03-03T10:39:28.577Z,87
2016-03-03T10:40:26.736Z,87
2016-03-03T10:41:24.817Z,87
2016-03-03T10:42:25.710Z,87
2016-03-03T10:43:23.697Z,87
2016-03-03T10:44:21.732Z,87
2016-03-03T10:45:19.640Z,86
2016-03-03T10:46:21.065Z,86
2016-03-03T10:47:22.661Z,86
2016-03-03T10:48:24.210Z,86
2016-03-03T10:49:25.651Z,85
2016-03-03T10:50:26.607Z,85
2016-03-03T10:51:27.704Z,85
2016-03-03T10:52:28.721Z,85
2016-03-03T10:53:29.912Z,85
2016-03-03T10:54:30.587Z,85
2016-03-03T10:55:31.526Z,85
2016-03-03T10:56:32.232Z,84
2016-03-03T10:57:32.767Z,84
2016-03-03T10:58:33.347Z,85
2016-03-03T10:59:34.147Z,85
2016-03-03T11:00:35.337Z,85
2016-03-03T11:01:36.480Z,86
2016-03-03T11:02:37.342Z,86
2016-03-03T11:03:38.954Z,86
2016-03-03T11:04:40.597Z,86
2016-03-03T11:05:38.288Z,87
2016-03-03T11:06:36.275Z,87
2016-03-03T11:07:34.434Z,87
2016-03-03T11:08:32.467Z,87
2016-03-03T11:09:30.486Z,87
2016-03-03T11:10:28.520Z,87
2016-03-03T11:11:26.444Z,87
2016-03-03T11:12:27.447Z,87
2016-03-03T11:13:25.489Z,87
2016-03-03T11:14:23.507Z,87
2016-03-03T11:15:22.182Z,87
2016-03-03T11:16:19.791Z,87
2016-03-03T11:17:17.559Z,87
2016-03-03T11:18:15.699Z,87
2016-03-03T11:19:13.749Z,87
2016-03-03T11:20:11.502Z,87
2016-03-03T11:21:09.318Z,87
2016-03-03T11:22:10.335Z,86
2016-03-03T11:23:11.777Z,86
2016-03-03T11:24:13.341Z,86
2016-03-03T11:25:14.922Z,86
2016-03-03T11:26:16.488Z,86
2016-03-03T11:27:18.070Z,86
2016-03-03T11:28:19.746Z,86
2016-03-03T11:29:21.264Z,86
2016-03-03T11:30:22.892Z,86
2016-03-03T11:31:24.394Z,86
2016-03-03T11:32:25.428Z,86
2016-03-03T11:33:27.087Z,86
2016-03-03T11:34:28.542Z,86
2016-03-03T11:35:30.155Z,86
2016-03-03T11:36:31.689Z,86
2016-03-03T11:37:33.239Z,86
2016-03-03T11:38:34.819Z,86
2016-03-03T11:39:36.416Z,86
2016-03-03T11:40:37.950Z,86
2016-03-03T11:41:39.577Z,86
2016-03-03T11:42:40.596Z,86
2016-03-03T11:43:42.270Z,86
2016-03-03T11:44:43.741Z,86
2016-03-03T11:45:45.400Z,86
2016-03-03T11:46:46.857Z,86
2016-03-03T11:47:48.530Z,87
2016-03-03T11:48:46.221Z,87
2016-03-03T11:49:44.068Z,87
2016-03-03T11:50:41.726Z,87
2016-03-03T11:51:39.541Z,87
2016-03-03T11:52:40.560Z,87
2016-03-03T11:53:38.688Z,87
2016-03-03T11:54:36.706Z,87
2016-03-03T11:55:34.613Z,87
2016-03-03T11:56:32.638Z,87
2016-03-03T11:57:30.647Z,87
2016-03-03T11:58:28.829Z,87
2016-03-03T11:59:26.654Z,87
2016-03-03T12:00:24.807Z,87
2016-03-03T12:01:22.759Z,87
2016-03-03T12:02:24.101Z,87
2016-03-03T12:03:21.790Z,87
2016-03-03T12:04:19.805Z,87
2016-03-03T12:05:17.930Z,87
2016-03-03T12:06:15.945Z,87
2016-03-03T12:07:13.869Z,87
2016-03-03T12:08:11.870Z,87
2016-03-03T12:09:09.903Z,87
2016-03-03T12:10:07.920Z,88
2016-03-03T12:11:06.280Z,88
2016-03-03T12:12:07.377Z,88
2016-03-03T12:13:05.785Z,88
2016-03-03T12:14:04.320Z,88
2016-03-03T12:15:02.853Z,88
2016-03-03T12:16:01.496Z,88
2016-03-03T12:16:59.905Z,88
2016-03-03T12:17:58.422Z,88
2016-03-03T12:18:57.082Z,88
2016-03-03T12:19:55.473Z,88
2016-03-03T12:20:54.070Z,88
2016-03-03T12:21:55.167Z,88
2016-03-03T12:22:53.950Z,88
2016-03-03T12:23:52.640Z,88
2016-03-03T12:24:51.392Z,88
2016-03-03T12:25:50.178Z,88
2016-03-03T12:26:48.992Z,88
2016-03-03T12:27:47.745Z,89
2016-03-03T12:28:46.763Z,89
2016-03-03T12:29:45.844Z,89
2016-03-03T12:30:44.894Z,89
2016-03-03T12:31:45.897Z,89
2016-03-03T12:32:44.930Z,89
2016-03-03T12:33:43.964Z,89
2016-03-03T12:34:43.014Z,89
2016-03-03T12:35:42.048Z,89
2016-03-03T12:36:41.097Z,89
2016-03-03T12:37:40.116Z,89
2016-03-03T12:38:39.321Z,89
2016-03-03T12:39:38.183Z,89
2016-03-03T12:40:37.405Z,89
2016-03-03T12:41:38.282Z,89
2016-03-03T12:42:37.427Z,89
2016-03-03T12:43:36.460Z,89
2016-03-03T12:44:35.384Z,89
2016-03-03T12:45:34.419Z,89
2016-03-03T12:46:33.452Z,89
2016-03-03T12:47:32.486Z,89
2016-03-03T12:48:31.520Z,89
2016-03-03T12:49:30.570Z,89
2016-03-03T12:50:29.635Z,89
2016-03-03T12:51:30.637Z,89
2016-03-03T12:52:29.703Z,89
2016-03-03T12:53:28.721Z,89
2016-03-03T12:54:27.739Z,89
2016-03-03T12:55:26.789Z,89
2016-03-03T12:56:25.808Z,89
2016-03-03T12:57:25.014Z,89
2016-03-03T12:58:24.000Z,89
2016-03-03T12:59:22.503Z,89
2016-03-03T13:00:22.037Z,89
2016-03-03T13:01:23.008Z,89
2016-03-03T13:02:22.074Z,89
2016-03-03T13:03:21.201Z,89
2016-03-03T13:04:20.111Z,89
2016-03-03T13:05:19.158Z,89
2016-03-03T13:06:18.300Z,89
2016-03-03T13:07:17.335Z,89
2016-03-03T13:08:16.243Z,89
2016-03-03T13:09:15.293Z,89
2016-03-03T13:10:14.374Z,89
2016-03-03T13:11:15.517Z,89
2016-03-03T13:12:14.426Z,89
2016-03-03T13:13:13.554Z,89
2016-03-03T13:14:12.603Z,89
2016-03-03T13:15:11.527Z,89
2016-03-03T13:16:10.812Z,89
2016-03-03T13:17:10.095Z,89
2016-03-03T13:18:09.239Z,89
2016-03-03T13:19:08.523Z,89
2016-03-03T13:20:07.885Z,89
2016-03-03T13:21:08.778Z,89
2016-03-03T13:22:08.171Z,89
2016-03-03T13:23:07.346Z,89
2016-03-03T13:24:06.630Z,89
2016-03-03T13:25:05.945Z,89
2016-03-03T13:26:05.198Z,89
2016-03-03T13:27:04.497Z,89
2016-03-03T13:28:03.906Z,89
2016-03-03T13:29:03.065Z,89
2016-03-03T13:30:02.412Z,89
2016-03-03T13:31:03.415Z,89
2016-03-03T13:32:02.715Z,89
2016-03-03T13:33:01.998Z,89
2016-03-03T13:34:01.423Z,89
2016-03-03T13:35:00.567Z,89
2016-03-03T13:35:59.850Z,89
2016-03-03T13:36:59.150Z,89
2016-03-03T13:37:58.558Z,89
2016-03-03T13:38:58.092Z,89
2016-03-03T13:39:57.580Z,89
2016-03-03T13:40:58.691Z,89
2016-03-03T13:41:58.288Z,89
2016-03-03T13:42:57.670Z,89
2016-03-03T13:43:57.189Z,89
2016-03-03T13:44:56.753Z,89
2016-03-03T13:45:56.302Z,89
2016-03-03T13:46:55.867Z,89
2016-03-03T13:47:55.370Z,89
2016-03-03T13:48:55.013Z,89
2016-03-03T13:49:54.626Z,89
2016-03-03T13:50:55.503Z,89
2016-03-03T13:51:55.052Z,89
2016-03-03T13:52:54.587Z,89
2016-03-03T13:53:54.136Z,89
2016-03-03T13:54:53.671Z,89
2016-03-03T13:55:53.346Z,89
2016-03-03T13:56:52.755Z,89
2016-03-03T13:57:52.429Z,89
2016-03-03T13:58:51.837Z,89
2016-03-03T13:59:51.449Z,89
2016-03-03T14:00:52.562Z,89
2016-03-03T14:01:51.987Z,89
2016-03-03T14:02:51.535Z,89
2016-03-03T14:03:51.179Z,89
2016-03-03T14:04:50.620Z,89
2016-03-03T14:05:50.153Z,89